KRPD

Rice Lake Regional - Carl's Field Airport

Rice Lake, Wisconsin, USA
METAR KRPD 250515Z AUTO 13008KT 10SM -DZ BKN120 19/18 A2992 RMK AO2 LTG DSNT S AND SW T01880175
Observed Flight Rules
May-25 @ 05:15 UTC (15 minutes ago) Visual Flight Rules
Wind Visibility Clouds Conditions
130° at 8 knots 10 miles
  • Broken at 12,000' AGL
  • Light Drizzle
Temperatures Readings
Current 19°C / 66°F
Dewpoint 18°C / 64°F
Humidity 94%
Altimeter 29.92" Hg
Pressure 1013 hPa
Elevation 338
METAR KRPD 250515Z AUTO 13008KT 10SM -DZ BKN120 19/18 A2992 RMK AO2 LTG DSNT S AND SW T01880175
Observed Flight Rules
May-25 @ 05:15 UTC
(15 minutes ago)
VFR
Wind Visibility
130° at 8 knots 10 miles
Clouds
  • Broken at 12,000' AGL
Conditions
  • Light Drizzle
Temperature Dewpoint
19°C / 66°F 18°C / 64°F
Humidity Altimeter Pressure
94% 29.92" Hg 1013 hPa